Time;durP1;ratioP1;P1;durP2;ratioP2;P2;SDS_P1;SDS_P2;PMS_P1;PMS_P2;Temp;Humidity;BMP_temperature;BMP_pressure;BME280_temperature;BME280_humidity;BME280_pressure;Samples;Min_cycle;Max_cycle;Signal;HPM_P1;HPM_P2
2022/10/03 04:02:31;;;;;;;3.15;1.10;;;10.60;99.90;;;;;;6234073;22;20268;-67
2022/10/03 04:05:11;;;;;;;6.95;0.90;;;10.60;99.90;;;;;;6240828;23;20168;-67
2022/10/03 04:07:50;;;;;;;1.50;0.68;;;10.60;99.90;;;;;;6242631;23;20531;-67
2022/10/03 04:10:37;;;;;;;1.55;0.30;;;10.60;99.90;;;;;;6243343;22;20337;-68
2022/10/03 04:13:35;;;;;;;2.28;0.85;;;10.50;99.90;;;;;;6242603;23;20176;-67
2022/10/03 04:18:56;;;;;;;1.67;0.47;;;10.50;99.90;;;;;;6242636;22;20220;-70
2022/10/03 04:19:18;;;;;;;0.57;0.57;;;10.50;99.90;;;;;;6241719;23;20211;-71
2022/10/03 04:22:10;;;;;;;0.90;0.35;;;10.50;99.90;;;;;;6242464;23;20178;-70
2022/10/03 04:24:57;;;;;;;2.80;0.70;;;10.60;99.90;;;;;;6242872;22;20192;-70
2022/10/03 04:27:36;;;;;;;10.32;1.58;;;10.50;99.90;;;;;;6241721;23;20172;-70
2022/10/03 04:30:09;;;;;;;1.02;1.00;;;10.50;99.90;;;;;;6243600;23;20248;-70
2022/10/03 04:32:56;;;;;;;6.72;1.00;;;10.50;99.90;;;;;;6242059;23;20161;-70
2022/10/03 04:35:53;;;;;;;0.75;0.63;;;10.40;99.90;;;;;;6242056;22;20295;-70
2022/10/03 04:38:40;;;;;;;2.42;0.98;;;10.40;99.90;;;;;;6191214;23;20195;-70
2022/10/03 04:41:16;;;;;;;2.25;0.90;;;10.40;99.90;;;;;;6242657;23;20168;-71
2022/10/03 04:43:51;;;;;;;2.67;0.93;;;10.30;99.90;;;;;;6242531;23;20204;-70
2022/10/03 04:46:27;;;;;;;0.60;0.60;;;10.30;99.90;;;;;;6241189;22;20231;-70
2022/10/03 04:49:03;;;;;;;3.08;1.00;;;10.30;99.90;;;;;;6240215;23;20621;-70
2022/10/03 04:51:41;;;;;;;8.00;1.23;;;10.20;99.90;;;;;;6242634;23;20162;-70
2022/10/03 04:54:22;;;;;;;8.80;0.65;;;10.20;99.90;;;;;;6242340;23;20188;-71
2022/10/03 04:56:56;;;;;;;0.85;0.50;;;10.20;99.90;;;;;;6241517;22;20222;-71
2022/10/03 04:59:34;;;;;;;1.83;1.10;;;10.20;99.90;;;;;;6242478;23;20188;-71
2022/10/03 05:02:11;;;;;;;0.70;0.50;;;10.10;99.90;;;;;;6242076;23;20562;-71
2022/10/03 05:04:47;;;;;;;0.63;0.63;;;10.10;99.90;;;;;;6240551;22;20193;-70
2022/10/03 05:07:20;;;;;;;3.70;1.25;;;10.10;99.90;;;;;;6242549;23;20168;-70
2022/10/03 05:09:53;;;;;;;8.82;1.00;;;10.10;99.90;;;;;;6241761;23;20175;-71
2022/10/03 05:12:31;;;;;;;14.32;2.05;;;10.00;99.90;;;;;;6243107;23;20173;-70
2022/10/03 05:15:08;;;;;;;0.65;0.50;;;10.00;99.90;;;;;;6241604;22;20199;-70
2022/10/03 05:17:44;;;;;;;0.50;0.50;;;10.00;99.90;;;;;;6242649;23;20187;-71
2022/10/03 05:20:32;;;;;;;0.30;0.30;;;10.00;99.90;;;;;;6240794;23;20168;-70
2022/10/03 05:23:12;;;;;;;0.90;0.90;;;10.00;99.90;;;;;;6241277;23;20195;-71
2022/10/03 05:25:52;;;;;;;0.75;0.75;;;10.00;99.90;;;;;;6241982;22;20665;-70
2022/10/03 05:28:32;;;;;;;2.08;0.57;;;10.00;99.90;;;;;;6241784;23;20270;-70
2022/10/03 05:31:07;;;;;;;2.17;0.38;;;10.00;99.90;;;;;;6242466;23;20245;-70
2022/10/03 05:33:43;;;;;;;0.43;0.32;;;10.10;99.90;;;;;;6240377;23;20167;-70
2022/10/03 05:36:20;;;;;;;1.60;0.73;;;10.10;99.90;;;;;;6242298;22;20221;-70
2022/10/03 05:39:20;;;;;;;4.05;0.47;;;10.10;99.90;;;;;;6239427;23;20172;-69
2022/10/03 05:41:54;;;;;;;2.30;0.82;;;10.10;99.90;;;;;;6240770;23;20641;-69
2022/10/03 05:44:32;;;;;;;4.97;0.68;;;10.10;99.90;;;;;;6241903;23;20194;-69
2022/10/03 05:47:43;;;;;;;1.52;0.60;;;10.10;99.90;;;;;;6241501;22;20199;-69
2022/10/03 05:50:27;;;;;;;7.60;0.73;;;10.10;99.90;;;;;;6241213;23;20188;-69
2022/10/03 05:53:02;;;;;;;4.88;0.50;;;10.10;99.90;;;;;;6241665;23;20187;-69
2022/10/03 05:55:40;;;;;;;1.00;0.30;;;10.20;99.90;;;;;;6242630;22;20291;-69
2022/10/03 05:58:31;;;;;;;2.33;1.20;;;10.20;99.90;;;;;;6241951;23;20164;-70
2022/10/03 06:01:26;;;;;;;0.35;0.35;;;10.20;99.90;;;;;;6241407;23;20201;-70
2022/10/03 06:04:13;;;;;;;1.55;0.60;;;10.20;99.90;;;;;;6240253;23;20211;-71
2022/10/03 06:06:54;;;;;;;2.75;0.70;;;10.30;99.90;;;;;;6243979;22;20205;-71
2022/10/03 06:10:05;;;;;;;3.10;0.95;;;10.30;99.90;;;;;;6242790;23;20221;-70
2022/10/03 06:12:41;;;;;;;1.23;0.68;;;10.40;99.90;;;;;;6220537;23;20494;-71
2022/10/03 06:15:25;;;;;;;0.90;0.88;;;10.40;99.90;;;;;;6243387;22;20241;-70
2022/10/03 06:18:11;;;;;;;4.68;1.30;;;10.50;99.90;;;;;;6242768;23;20179;-70
2022/10/03 06:21:06;;;;;;;1.70;0.68;;;10.50;99.90;;;;;;6243911;23;20598;-70
2022/10/03 06:24:05;;;;;;;2.28;1.33;;;10.60;99.90;;;;;;6243104;23;20194;-70
2022/10/03 06:26:56;;;;;;;3.50;0.98;;;10.60;99.90;;;;;;6243459;22;20209;-70
2022/10/03 06:29:57;;;;;;;1.08;1.08;;;10.60;99.90;;;;;;6243396;23;20184;-70
2022/10/03 06:33:02;;;;;;;6.72;0.95;;;10.70;99.90;;;;;;6241933;23;20265;-71
2022/10/03 06:36:11;;;;;;;7.28;1.10;;;10.80;99.90;;;;;;6242303;22;20202;-70
2022/10/03 06:39:25;;;;;;;1.98;1.00;;;10.80;99.90;;;;;;6231389;23;20199;-70
2022/10/03 06:42:18;;;;;;;1.50;1.40;;;10.90;99.90;;;;;;6172327;23;20194;-71
2022/10/03 06:45:21;;;;;;;6.63;0.77;;;11.00;99.90;;;;;;6243006;22;20497;-71
2022/10/03 06:48:07;;;;;;;4.65;0.70;;;11.10;99.90;;;;;;6228000;23;20680;-71
2022/10/03 06:50:50;;;;;;;7.07;2.85;;;11.20;99.90;;;;;;6243457;23;20182;-71
2022/10/03 06:53:44;;;;;;;0.50;0.50;;;11.20;99.90;;;;;;6242149;23;20496;-70
2022/10/03 06:56:37;;;;;;;0.80;0.80;;;11.20;99.90;;;;;;6243148;22;20203;-70
2022/10/03 06:59:30;;;;;;;6.82;0.90;;;11.20;99.90;;;;;;6243585;23;20166;-70
2022/10/03 07:02:29;;;;;;;1.15;0.85;;;11.30;99.90;;;;;;6242181;23;20474;-70
2022/10/03 07:05:43;;;;;;;4.40;1.17;;;11.40;99.90;;;;;;6241773;22;20272;-70
2022/10/03 07:08:47;;;;;;;1.65;0.63;;;11.50;99.90;;;;;;6243233;23;20203;-71
2022/10/03 07:11:34;;;;;;;4.95;1.52;;;11.50;99.90;;;;;;6236124;23;20193;-70
2022/10/03 07:14:35;;;;;;;4.80;0.85;;;11.60;99.90;;;;;;6244520;23;20164;-70
2022/10/03 07:17:34;;;;;;;2.45;0.45;;;11.60;99.90;;;;;;6242556;23;20221;-70
2022/10/03 07:20:43;;;;;;;0.60;0.60;;;11.80;99.90;;;;;;6227379;23;20328;-70
2022/10/03 07:23:53;;;;;;;3.53;0.82;;;11.90;99.90;;;;;;6242299;23;20188;-70
2022/10/03 07:26:56;;;;;;;1.85;0.80;;;12.10;99.90;;;;;;6219048;22;20523;-70
2022/10/03 07:29:58;;;;;;;0.87;0.87;;;12.20;99.90;;;;;;6241874;23;20167;-70
2022/10/03 07:32:48;;;;;;;3.40;0.80;;;12.40;99.90;;;;;;6242438;23;20413;-71
2022/10/03 07:38:59;;;;;;;6.70;1.40;;;12.60;99.90;;;;;;6242146;23;20506;-70
2022/10/03 07:42:00;;;;;;;0.70;0.70;;;12.70;99.90;;;;;;6242716;23;20753;-70
2022/10/03 07:45:06;;;;;;;1.07;1.07;;;12.80;99.90;;;;;;6237329;23;20450;-70
2022/10/03 07:48:18;;;;;;;1.10;1.00;;;12.90;99.90;;;;;;6242069;23;20415;-70
2022/10/03 07:51:05;;;;;;;1.57;1.47;;;12.90;99.90;;;;;;6241075;23;20413;-70
2022/10/03 07:54:20;;;;;;;0.97;0.97;;;12.90;99.90;;;;;;6234284;23;20421;-70
2022/10/03 07:57:02;;;;;;;1.90;0.47;;;13.00;99.90;;;;;;6240895;22;20944;-70
2022/10/03 08:00:01;;;;;;;2.57;0.90;;;13.00;99.90;;;;;;6242453;23;20919;-70
2022/10/03 08:02:49;;;;;;;4.20;1.03;;;13.00;99.90;;;;;;6240743;23;20450;-70
2022/10/03 08:05:28;;;;;;;6.43;0.50;;;13.00;99.90;;;;;;6241663;22;20451;-70
2022/10/03 08:08:21;;;;;;;0.40;0.40;;;13.10;99.90;;;;;;6247998;23;20904;-70
2022/10/03 08:11:07;;;;;;;2.07;1.03;;;13.20;99.90;;;;;;6243125;23;20417;-70
2022/10/03 08:13:54;;;;;;;9.20;1.23;;;13.30;99.90;;;;;;6242327;23;21084;-71
2022/10/03 08:16:42;;;;;;;3.47;0.53;;;13.30;99.90;;;;;;6241647;22;20460;-70
2022/10/03 08:19:26;;;;;;;5.73;0.73;;;13.40;99.90;;;;;;6240826;23;20964;-70
2022/10/03 08:22:08;;;;;;;2.87;0.97;;;13.50;99.90;;;;;;6241717;23;20407;-70
2022/10/03 08:25:07;;;;;;;0.83;0.50;;;13.60;99.90;;;;;;6241650;23;21013;-70
2022/10/03 08:27:48;;;;;;;1.70;0.70;;;13.60;99.90;;;;;;6241856;23;20434;-70
2022/10/03 08:30:24;;;;;;;8.27;1.00;;;13.70;99.90;;;;;;6242632;23;20787;-70
2022/10/03 08:33:00;;;;;;;4.90;1.13;;;13.80;99.90;;;;;;6240487;23;20422;-70
2022/10/03 08:35:47;;;;;;;0.53;0.53;;;13.70;99.90;;;;;;6242176;22;20438;-70
2022/10/03 08:38:41;;;;;;;0.10;0.10;;;13.90;99.90;;;;;;6242153;23;20407;-70
2022/10/03 08:41:37;;;;;;;0.23;0.23;;;14.00;99.90;;;;;;6242381;23;20409;-70
2022/10/03 08:44:31;;;;;;;2.27;1.57;;;14.10;99.90;;;;;;6242032;23;20455;-70
2022/10/03 08:47:55;;;;;;;0.47;0.40;;;14.20;99.90;;;;;;6250896;22;20466;-70
2022/10/03 08:50:54;;;;;;;1.70;0.60;;;14.20;99.90;;;;;;6242492;23;20483;-70
2022/10/03 08:53:52;;;;;;;0.87;0.70;;;14.20;99.90;;;;;;6241685;23;20407;-69
2022/10/03 08:56:27;;;;;;;0.97;0.40;;;14.10;99.90;;;;;;6241962;22;20442;-70
2022/10/03 08:59:19;;;;;;;0.40;0.40;;;14.10;99.90;;;;;;6241987;23;20425;-70
2022/10/03 09:02:24;;;;;;;4.93;0.40;;;14.10;99.90;;;;;;6241701;23;20437;-70
2022/10/03 09:05:21;;;;;;;0.20;0.20;;;14.20;99.90;;;;;;6251832;22;20445;-70
2022/10/03 09:08:28;;;;;;;3.93;0.90;;;14.30;99.90;;;;;;6241964;23;20756;-69
2022/10/03 09:11:22;;;;;;;0.63;0.30;;;14.40;99.90;;;;;;6242916;23;20442;-70
2022/10/03 09:14:23;;;;;;;2.33;0.60;;;14.50;99.90;;;;;;6252147;23;20412;-69
2022/10/03 09:17:05;;;;;;;2.23;0.87;;;14.60;99.90;;;;;;6241529;22;20455;-69
2022/10/03 09:20:12;;;;;;;0.40;0.40;;;14.80;99.90;;;;;;6242226;23;20455;-70
2022/10/03 09:23:00;;;;;;;0.40;0.40;;;15.00;99.90;;;;;;6241966;23;20413;-69
2022/10/03 09:25:56;;;;;;;3.53;0.70;;;15.20;99.90;;;;;;6241837;22;20450;-70
2022/10/03 09:28:53;;;;;;;3.93;0.80;;;15.40;99.90;;;;;;6203029;23;20431;-70
2022/10/03 09:31:44;;;;;;;1.00;0.90;;;15.40;99.90;;;;;;6241806;23;20428;-69
2022/10/03 09:34:29;;;;;;;3.13;0.73;;;15.40;99.90;;;;;;6241010;23;20403;-70
2022/10/03 09:37:33;;;;;;;1.23;1.13;;;15.50;99.90;;;;;;6241725;22;20741;-69
2022/10/03 09:40:50;;;;;;;0.83;0.83;;;15.70;99.90;;;;;;6242872;23;20405;-70
2022/10/03 09:43:51;;;;;;;1.07;0.60;;;15.70;99.90;;;;;;6217542;23;20432;-70
2022/10/03 09:47:21;;;;;;;0.37;0.37;;;15.80;99.90;;;;;;6253364;22;20468;-69
2022/10/03 09:50:20;;;;;;;0.60;0.60;;;15.80;99.90;;;;;;6215781;23;20734;-69
2022/10/03 09:53:05;;;;;;;1.43;0.77;;;15.90;99.90;;;;;;6243181;23;20879;-68
2022/10/03 09:55:46;;;;;;;1.33;0.63;;;15.90;99.90;;;;;;6243403;22;20438;-69
2022/10/03 09:58:52;;;;;;;2.37;0.50;;;15.80;99.90;;;;;;6243495;23;20419;-69
2022/10/03 10:01:28;;;;;;;3.90;0.60;;;15.80;99.90;;;;;;6197032;23;20462;-69
2022/10/03 10:04:50;;;;;;;0.40;0.40;;;15.80;99.90;;;;;;6253023;23;20431;-69
2022/10/03 10:07:44;;;;;;;6.63;0.90;;;15.80;99.90;;;;;;6150186;23;20512;-70
2022/10/03 10:10:51;;;;;;;0.47;0.47;;;15.90;99.90;;;;;;6237993;23;20434;-70
2022/10/03 10:13:57;;;;;;;0.33;0.20;;;16.00;99.90;;;;;;6242971;23;20429;-68
2022/10/03 10:16:47;;;;;;;2.73;0.60;;;16.00;99.90;;;;;;6165395;23;20449;-71
2022/10/03 10:19:37;;;;;;;0.60;0.60;;;16.00;99.90;;;;;;6243012;23;20418;-70
2022/10/03 10:22:34;;;;;;;1.07;0.60;;;16.00;99.90;;;;;;6247369;23;20417;-69
2022/10/03 10:25:31;;;;;;;0.50;0.50;;;16.10;99.90;;;;;;6192565;22;20458;-70
2022/10/03 10:28:43;;;;;;;0.97;0.97;;;16.20;99.90;;;;;;6243687;23;20407;-70
2022/10/03 10:31:41;;;;;;;2.20;0.30;;;16.10;99.90;;;;;;6199333;23;20416;-69
2022/10/03 10:34:45;;;;;;;0.53;0.53;;;16.30;99.90;;;;;;6243824;23;20170;-69
2022/10/03 10:38:02;;;;;;;0.47;0.47;;;16.20;99.90;;;;;;6197262;23;20417;-69
2022/10/03 10:41:05;;;;;;;2.20;0.37;;;16.30;99.90;;;;;;6178660;23;20424;-69
2022/10/03 10:44:05;;;;;;;3.80;0.70;;;16.50;99.90;;;;;;6179371;23;21050;-69
2022/10/03 10:47:20;;;;;;;5.70;0.50;;;16.50;99.90;;;;;;6247193;22;20513;-69
2022/10/03 10:50:17;;;;;;;3.00;0.90;;;16.40;99.90;;;;;;6261160;23;20392;-69
2022/10/03 10:53:21;;;;;;;0.50;0.50;;;16.20;99.90;;;;;;6259556;23;20412;-69
2022/10/03 10:56:23;;;;;;;2.80;1.53;;;16.00;99.90;;;;;;6256764;22;20433;-69
2022/10/03 10:59:31;;;;;;;2.80;1.47;;;16.00;99.90;;;;;;6210223;23;20421;-69
2022/10/03 11:02:40;;;;;;;0.33;0.33;;;16.10;99.90;;;;;;6255515;23;20413;-69
2022/10/03 11:05:52;;;;;;;4.03;1.13;;;16.30;99.90;;;;;;6253994;22;20450;-69
2022/10/03 11:09:05;;;;;;;0.30;0.30;;;16.60;99.90;;;;;;6249991;23;20899;-69
2022/10/03 11:12:23;;;;;;;0.57;0.57;;;16.80;99.90;;;;;;6242494;23;20402;-68
2022/10/03 11:15:25;;;;;;;0.57;0.30;;;17.00;99.90;;;;;;6243284;22;20401;-69
2022/10/03 11:18:33;;;;;;;0.53;0.53;;;17.00;99.90;;;;;;6243712;23;20402;-70
2022/10/03 11:21:34;;;;;;;0.83;0.37;;;16.90;99.90;;;;;;6243026;23;20422;-69
2022/10/03 11:24:26;;;;;;;1.03;0.40;;;16.70;99.90;;;;;;6242194;23;20413;-70
2022/10/03 11:27:29;;;;;;;0.73;0.40;;;16.50;99.90;;;;;;6251111;22;20441;-70
2022/10/03 11:30:27;;;;;;;0.27;0.20;;;16.40;99.90;;;;;;6250203;23;20926;-70
2022/10/03 11:33:40;;;;;;;0.20;0.20;;;16.50;99.90;;;;;;6243232;23;20408;-69
2022/10/03 11:36:31;;;;;;;0.30;0.30;;;16.60;99.90;;;;;;6242762;22;20488;-69
2022/10/03 11:39:04;;;;;;;0.30;0.30;;;16.70;99.90;;;;;;6243636;23;20768;-69
2022/10/03 11:41:40;;;;;;;0.30;0.30;;;16.70;99.90;;;;;;6244543;23;20422;-70
2022/10/03 11:44:26;;;;;;;7.93;1.07;;;16.90;99.90;;;;;;6243891;23;20411;-69
2022/10/03 11:47:16;;;;;;;1.03;0.30;;;16.90;99.90;;;;;;6242739;22;20442;-70
2022/10/03 11:50:03;;;;;;;0.50;0.50;;;16.90;99.90;;;;;;6241958;23;20856;-68
2022/10/03 11:52:38;;;;;;;2.27;0.77;;;16.90;99.90;;;;;;6251373;23;20895;-69
2022/10/03 11:55:20;;;;;;;2.30;0.20;;;16.90;99.90;;;;;;6242186;22;20933;-70
2022/10/03 11:57:59;;;;;;;0.60;0.60;;;16.90;99.90;;;;;;6244105;23;20410;-69
2022/10/03 12:00:28;;;;;;;0.40;0.30;;;16.90;99.90;;;;;;6243574;23;20424;-69
2022/10/03 12:03:16;;;;;;;2.40;0.77;;;17.00;99.90;;;;;;6243114;23;20937;-70
2022/10/03 12:05:51;;;;;;;0.80;0.30;;;17.00;99.90;;;;;;6241877;22;20466;-71
2022/10/03 12:11:18;;;;;;;0.60;0.40;;;17.00;99.90;;;;;;6243260;23;20419;-70
2022/10/03 12:14:06;;;;;;;1.07;0.47;;;17.00;99.90;;;;;;6242649;23;20506;-70
2022/10/03 12:16:50;;;;;;;3.13;0.40;;;16.90;99.90;;;;;;6242951;22;20453;-70
2022/10/03 12:19:29;;;;;;;2.13;0.87;;;16.90;99.90;;;;;;6242981;23;20489;-70
2022/10/03 12:22:01;;;;;;;0.30;0.30;;;16.90;99.90;;;;;;6242922;23;20440;-70
2022/10/03 12:24:34;;;;;;;0.77;0.30;;;16.80;99.90;;;;;;6242388;23;20409;-70
2022/10/03 12:27:10;;;;;;;1.07;0.47;;;16.90;99.90;;;;;;6241786;22;20448;-69
2022/10/03 12:29:43;;;;;;;1.67;0.33;;;16.80;99.90;;;;;;6242754;23;20920;-70
2022/10/03 12:32:20;;;;;;;2.40;0.90;;;16.80;99.90;;;;;;6242298;23;20406;-69
2022/10/03 12:34:53;;;;;;;0.60;0.40;;;16.80;99.90;;;;;;6240459;22;20434;-69
2022/10/03 12:37:39;;;;;;;4.33;0.80;;;16.70;99.90;;;;;;6241116;23;20409;-69
2022/10/03 12:40:15;;;;;;;0.43;0.43;;;16.70;99.90;;;;;;6242072;23;20793;-69
2022/10/03 12:42:49;;;;;;;2.10;0.40;;;16.70;99.90;;;;;;6242076;23;20405;-69
2022/10/03 12:45:25;;;;;;;1.90;0.70;;;16.60;99.90;;;;;;6243033;22;20463;-70
2022/10/03 12:48:36;;;;;;;5.07;0.60;;;16.60;99.90;;;;;;6242993;23;20408;-69
2022/10/03 12:51:14;;;;;;;3.13;0.50;;;16.50;99.90;;;;;;6186247;23;20430;-69
2022/10/03 12:53:56;;;;;;;4.77;0.40;;;16.40;99.90;;;;;;6239462;23;20407;-69
2022/10/03 12:56:33;;;;;;;1.60;0.73;;;16.20;99.90;;;;;;6242459;22;21009;-69
2022/10/03 12:59:31;;;;;;;0.20;0.20;;;16.10;99.90;;;;;;6253852;23;20490;-70
2022/10/03 13:02:22;;;;;;;0.20;0.20;;;16.20;99.90;;;;;;6222920;23;20744;-70
2022/10/03 13:05:06;;;;;;;0.33;0.33;;;16.40;99.90;;;;;;6239554;22;20448;-70
2022/10/03 13:07:41;;;;;;;0.40;0.40;;;16.60;99.90;;;;;;6243243;23;20411;-69
2022/10/03 13:10:28;;;;;;;1.60;1.23;;;16.80;99.90;;;;;;6243001;23;20406;-71
2022/10/03 13:13:45;;;;;;;1.00;0.70;;;16.90;99.90;;;;;;6242021;23;20498;-69
2022/10/03 13:16:20;;;;;;;0.50;0.50;;;16.90;99.90;;;;;;6241606;22;20446;-71
2022/10/03 13:18:59;;;;;;;2.77;0.50;;;16.80;99.90;;;;;;6242311;23;20786;-71
2022/10/03 13:21:51;;;;;;;0.40;0.40;;;16.80;99.90;;;;;;6242601;23;20910;-71
2022/10/03 13:24:28;;;;;;;0.97;0.50;;;16.70;99.90;;;;;;6242660;23;20422;-72
2022/10/03 13:27:05;;;;;;;3.93;1.23;;;16.80;99.90;;;;;;6243272;22;20434;-71
2022/10/03 13:29:39;;;;;;;0.50;0.50;;;16.90;99.90;;;;;;6242852;23;20464;-71
2022/10/03 13:32:16;;;;;;;3.40;0.80;;;16.90;99.90;;;;;;6243754;23;20433;-72
2022/10/03 13:38:37;;;;;;;0.93;0.37;;;17.00;99.90;;;;;;6255838;23;20487;-72
2022/10/03 13:41:14;;;;;;;0.83;0.73;;;16.90;99.90;;;;;;6245696;23;20497;-72
2022/10/03 13:43:47;;;;;;;1.07;0.70;;;16.80;99.90;;;;;;6241774;23;20400;-71
2022/10/03 13:46:18;;;;;;;1.73;1.63;;;16.80;99.90;;;;;;6242270;22;20538;-72
2022/10/03 13:48:55;;;;;;;2.53;1.53;;;16.80;99.90;;;;;;6242324;23;20474;-72
2022/10/03 13:51:31;;;;;;;0.60;0.60;;;16.80;99.90;;;;;;6242234;23;20406;-71
2022/10/03 13:54:03;;;;;;;1.00;1.00;;;16.80;99.90;;;;;;6252323;23;20617;-71
2022/10/03 13:56:56;;;;;;;0.87;0.60;;;16.90;99.90;;;;;;6242192;22;20444;-70
2022/10/03 13:59:49;;;;;;;0.93;0.93;;;16.90;99.90;;;;;;6241992;23;20410;-71
2022/10/03 14:02:39;;;;;;;0.63;0.63;;;16.80;99.90;;;;;;6252408;23;20552;-70
2022/10/03 14:05:26;;;;;;;0.70;0.70;;;16.80;99.90;;;;;;6243053;22;20483;-71
2022/10/03 14:08:03;;;;;;;1.10;1.00;;;16.70;99.90;;;;;;6243760;23;20433;-71
2022/10/03 14:10:58;;;;;;;1.00;1.00;;;16.70;99.90;;;;;;6242964;23;20714;-69
2022/10/03 14:13:45;;;;;;;4.10;0.93;;;16.60;99.90;;;;;;6242032;23;20518;-71
2022/10/03 14:16:23;;;;;;;2.60;1.07;;;16.60;99.90;;;;;;6252642;22;21140;-72
2022/10/03 14:18:58;;;;;;;3.40;1.13;;;16.60;99.90;;;;;;6252817;23;20730;-72
2022/10/03 14:21:54;;;;;;;1.03;1.00;;;16.60;99.90;;;;;;6253440;23;20425;-71
2022/10/03 14:24:38;;;;;;;1.67;0.83;;;16.50;99.90;;;;;;6254924;23;20417;-70
2022/10/03 14:27:30;;;;;;;6.43;0.97;;;16.50;99.90;;;;;;6254449;23;20438;-71
2022/10/03 14:30:14;;;;;;;2.90;1.00;;;16.60;99.90;;;;;;6230058;23;20423;-70
2022/10/03 14:32:59;;;;;;;0.80;0.80;;;16.60;99.90;;;;;;6253762;23;20176;-70
2022/10/03 14:35:36;;;;;;;2.73;0.70;;;16.50;99.90;;;;;;6254235;22;20440;-69
2022/10/03 14:38:18;;;;;;;5.40;0.67;;;16.50;99.90;;;;;;6244929;23;20424;-71
2022/10/03 14:40:48;;;;;;;0.57;0.57;;;16.50;99.90;;;;;;6255503;23;21067;-71
2022/10/03 14:43:30;;;;;;;3.30;0.70;;;16.50;99.90;;;;;;6244327;23;20428;-71
2022/10/03 14:46:00;;;;;;;2.33;0.73;;;16.50;99.90;;;;;;6245739;22;20455;-69
2022/10/03 14:48:30;;;;;;;0.40;0.40;;;16.50;99.90;;;;;;6244472;23;20429;-70
2022/10/03 14:51:06;;;;;;;0.30;0.30;;;16.40;99.90;;;;;;6246081;23;20434;-70
2022/10/03 14:53:38;;;;;;;3.37;1.47;;;16.40;99.90;;;;;;6242794;23;20874;-70
2022/10/03 14:56:08;;;;;;;1.10;1.10;;;16.30;99.90;;;;;;6243079;22;20520;-71
2022/10/03 14:58:37;;;;;;;0.67;0.67;;;16.30;99.90;;;;;;6244516;23;20785;-70
2022/10/03 15:01:12;;;;;;;0.60;0.60;;;16.20;99.90;;;;;;6243688;23;20449;-71
2022/10/03 15:03:42;;;;;;;0.30;0.30;;;16.20;99.90;;;;;;6243696;23;20404;-71
2022/10/03 15:06:33;;;;;;;2.30;0.80;;;16.20;99.90;;;;;;6243275;22;20449;-71
2022/10/03 15:09:03;;;;;;;0.70;0.70;;;16.10;99.90;;;;;;6244518;23;20408;-71
2022/10/03 15:11:35;;;;;;;1.53;1.07;;;16.10;99.90;;;;;;6253500;23;20426;-71
2022/10/03 15:14:05;;;;;;;1.03;0.83;;;16.10;99.90;;;;;;6243817;23;20412;-71
2022/10/03 15:16:36;;;;;;;1.20;0.80;;;16.10;99.90;;;;;;6242166;22;20444;-71
2022/10/03 15:19:06;;;;;;;0.47;0.47;;;16.10;99.90;;;;;;6243971;23;20741;-71
2022/10/03 15:21:34;;;;;;;4.83;1.73;;;16.10;99.90;;;;;;6243791;23;20404;-71
2022/10/03 15:24:05;;;;;;;0.97;0.93;;;16.10;99.90;;;;;;6244506;23;20438;-71
2022/10/03 15:26:35;;;;;;;1.20;1.20;;;16.10;99.90;;;;;;6244169;22;20451;-71
2022/10/03 15:29:05;;;;;;;6.60;0.83;;;16.10;99.90;;;;;;6244466;23;20430;-71
2022/10/03 15:31:35;;;;;;;0.73;0.73;;;16.10;99.90;;;;;;6243477;23;20756;-71
2022/10/03 15:34:05;;;;;;;0.90;0.90;;;16.10;99.90;;;;;;6243652;23;20428;-70
2022/10/03 15:36:36;;;;;;;2.77;0.50;;;16.10;99.90;;;;;;6243907;22;20437;-71
2022/10/03 15:39:07;;;;;;;3.13;0.50;;;16.10;99.90;;;;;;6244556;23;20448;-71
2022/10/03 15:41:36;;;;;;;0.67;0.67;;;16.00;99.90;;;;;;6244141;23;20466;-71
2022/10/03 15:44:10;;;;;;;0.40;0.40;;;15.90;99.90;;;;;;6243971;23;20431;-71
2022/10/03 15:46:45;;;;;;;1.90;1.80;;;15.90;99.90;;;;;;6243771;22;20474;-71
2022/10/03 15:49:20;;;;;;;2.93;1.07;;;15.90;99.90;;;;;;6254339;23;20544;-70
2022/10/03 15:51:47;;;;;;;1.57;1.47;;;15.90;99.90;;;;;;6244497;23;20413;-70
2022/10/03 15:54:22;;;;;;;0.93;0.93;;;15.80;99.90;;;;;;6243604;23;20427;-71
2022/10/03 15:56:53;;;;;;;1.00;0.60;;;15.80;99.90;;;;;;6244666;22;20465;-70
2022/10/03 15:59:26;;;;;;;0.83;0.83;;;15.80;99.90;;;;;;6243650;23;20952;-71
2022/10/03 16:01:54;;;;;;;0.87;0.87;;;15.70;99.90;;;;;;6245093;23;20405;-71
2022/10/03 16:04:24;;;;;;;0.53;0.53;;;15.70;99.90;;;;;;6243714;23;20420;-71
2022/10/03 16:07:01;;;;;;;4.30;0.87;;;15.60;99.90;;;;;;6244777;22;21001;-71
2022/10/03 16:09:38;;;;;;;0.80;0.80;;;15.60;99.90;;;;;;6244109;23;20411;-71
2022/10/03 16:12:43;;;;;;;2.77;0.83;;;15.60;99.90;;;;;;6244885;23;20411;-71
2022/10/03 16:15:20;;;;;;;0.83;0.83;;;15.50;99.90;;;;;;6149888;23;20452;-71
2022/10/03 16:17:49;;;;;;;3.20;0.80;;;15.40;99.90;;;;;;6228627;23;20933;-71
2022/10/03 16:20:22;;;;;;;3.50;0.90;;;15.40;99.90;;;;;;6244007;22;20464;-67
2022/10/03 16:22:52;;;;;;;3.50;0.60;;;15.30;99.90;;;;;;6242732;23;20941;-67
2022/10/03 16:25:22;;;;;;;0.60;0.37;;;15.20;99.90;;;;;;6243193;23;20423;-67
2022/10/03 16:27:54;;;;;;;2.87;1.37;;;15.20;99.90;;;;;;6242157;23;20396;-67
2022/10/03 16:30:23;;;;;;;3.57;1.97;;;15.20;99.90;;;;;;6243252;22;20452;-67
2022/10/03 16:32:57;;;;;;;1.43;0.87;;;15.10;99.90;;;;;;6242082;23;20916;-67
2022/10/03 16:35:33;;;;;;;4.43;1.20;;;15.10;99.90;;;;;;6240584;23;20412;-67
2022/10/03 16:38:02;;;;;;;0.77;0.77;;;15.10;99.90;;;;;;6242750;23;20411;-68
2022/10/03 16:40:31;;;;;;;0.40;0.40;;;15.10;99.90;;;;;;6241990;22;20975;-68
2022/10/03 16:42:59;;;;;;;1.37;0.80;;;15.10;99.90;;;;;;6242523;23;20454;-68
2022/10/03 16:45:30;;;;;;;2.23;0.87;;;15.10;99.90;;;;;;6242451;23;20423;-67
2022/10/03 16:50:51;;;;;;;1.57;1.33;;;14.90;99.90;;;;;;6242329;22;20478;-67
2022/10/03 16:53:19;;;;;;;4.20;0.93;;;15.00;99.90;;;;;;6241828;23;20450;-68
2022/10/03 16:55:50;;;;;;;0.83;0.53;;;14.90;99.90;;;;;;6242562;23;20474;-67
2022/10/03 16:58:22;;;;;;;0.60;0.60;;;14.90;99.90;;;;;;6242420;23;20419;-67
2022/10/03 17:00:55;;;;;;;4.70;1.70;;;14.80;99.90;;;;;;6242409;22;20441;-68
2022/10/03 17:03:25;;;;;;;2.70;2.50;;;14.80;99.90;;;;;;6240937;23;20473;-69
2022/10/03 17:05:55;;;;;;;4.47;3.20;;;14.70;99.90;;;;;;6241479;23;20431;-68
2022/10/03 17:08:25;;;;;;;8.60;4.77;;;14.70;99.90;;;;;;6242089;23;20420;-69
2022/10/03 17:10:56;;;;;;;8.53;2.73;;;14.60;99.90;;;;;;6241488;22;20924;-69
2022/10/03 17:13:28;;;;;;;1.60;1.50;;;14.50;99.90;;;;;;6241779;23;20428;-68
2022/10/03 17:16:00;;;;;;;0.70;0.70;;;14.50;99.90;;;;;;6242135;23;20769;-68
2022/10/03 17:18:30;;;;;;;1.60;1.50;;;14.40;99.90;;;;;;6241148;23;20414;-68
2022/10/03 17:21:06;;;;;;;0.60;0.60;;;14.30;99.90;;;;;;6241694;22;20935;-67
2022/10/03 17:23:38;;;;;;;0.60;0.60;;;14.30;99.90;;;;;;6241102;23;20885;-68
2022/10/03 17:26:10;;;;;;;0.53;0.53;;;14.20;99.90;;;;;;6241683;23;20933;-68
2022/10/03 17:28:48;;;;;;;0.93;0.93;;;14.20;99.90;;;;;;6242161;23;20518;-68
2022/10/03 17:31:28;;;;;;;2.67;0.93;;;14.10;99.90;;;;;;6241304;22;20442;-68
2022/10/03 17:34:01;;;;;;;7.60;1.20;;;14.10;99.90;;;;;;6241428;23;20417;-67
2022/10/03 17:36:49;;;;;;;0.83;0.83;;;14.00;99.90;;;;;;6240907;23;20414;-68
2022/10/03 17:39:29;;;;;;;2.93;1.10;;;14.00;99.90;;;;;;6241537;22;20412;-69
2022/10/03 17:42:01;;;;;;;2.23;2.00;;;13.90;99.90;;;;;;6239954;23;20887;-69
2022/10/03 17:44:36;;;;;;;1.83;1.83;;;13.90;99.90;;;;;;6242172;23;20488;-69
2022/10/03 17:47:10;;;;;;;1.33;1.23;;;13.90;99.90;;;;;;6239138;23;20454;-69
2022/10/03 17:49:58;;;;;;;1.10;1.10;;;13.80;99.90;;;;;;6242372;22;20447;-69
2022/10/03 17:52:26;;;;;;;1.27;0.70;;;13.80;99.90;;;;;;6240831;23;20726;-69
2022/10/03 17:54:57;;;;;;;2.63;1.03;;;13.70;99.90;;;;;;6240679;23;20448;-69
2022/10/03 17:57:30;;;;;;;1.03;1.03;;;13.70;99.90;;;;;;6242339;23;21028;-70
2022/10/03 18:00:03;;;;;;;8.30;0.97;;;13.70;99.90;;;;;;6244174;22;20445;-69
2022/10/03 18:02:38;;;;;;;1.67;1.20;;;13.70;99.90;;;;;;6243863;23;20456;-68
2022/10/03 18:05:13;;;;;;;0.67;0.67;;;13.60;99.90;;;;;;6243181;23;20403;-69
2022/10/03 18:07:42;;;;;;;0.67;0.67;;;13.60;99.90;;;;;;6242087;23;20543;-67
2022/10/03 18:10:20;;;;;;;0.90;0.90;;;13.50;99.90;;;;;;6242974;22;20446;-69
2022/10/03 18:12:52;;;;;;;4.77;1.27;;;13.50;99.90;;;;;;6243339;23;20406;-68
2022/10/03 18:15:57;;;;;;;1.43;1.33;;;13.40;99.90;;;;;;6243204;23;20493;-69
2022/10/03 18:18:53;;;;;;;1.80;1.40;;;13.40;99.90;;;;;;6242752;23;20413;-69
2022/10/03 18:21:34;;;;;;;6.90;1.40;;;13.30;99.90;;;;;;6243212;22;20449;-68
2022/10/03 18:24:23;;;;;;;1.33;1.33;;;13.30;99.90;;;;;;6242680;23;20492;-69
2022/10/03 18:27:06;;;;;;;2.37;1.57;;;13.30;99.90;;;;;;6244280;23;20514;-69
2022/10/03 18:29:39;;;;;;;1.77;1.67;;;13.30;99.90;;;;;;6242844;22;20443;-69
2022/10/03 18:32:13;;;;;;;4.53;1.77;;;13.20;99.90;;;;;;6243797;23;20486;-69
2022/10/03 18:34:46;;;;;;;1.83;1.73;;;13.30;99.90;;;;;;6240935;23;20890;-69